Time;durP1;ratioP1;P1;durP2;ratioP2;P2;SDS_P1;SDS_P2;PMS_P1;PMS_P2;Temp;Humidity;BMP_temperature;BMP_pressure;BME280_temperature;BME280_humidity;BME280_pressure;Samples;Min_cycle;Max_cycle;Signal;HPM_P1;HPM_P2
2021/10/25 00:02:17;;;;;;;18.70;10.52;;;8.40;99.90;;;;;;5080407;28;20063;-72
2021/10/25 00:04:43;;;;;;;13.27;8.75;;;8.40;99.90;;;;;;5062317;28;20020;-72
2021/10/25 00:07:08;;;;;;;14.85;10.20;;;8.40;99.90;;;;;;5081844;28;20020;-72
2021/10/25 00:09:34;;;;;;;16.38;9.68;;;8.40;99.90;;;;;;5085089;28;20027;-72
2021/10/25 00:12:00;;;;;;;15.10;9.85;;;8.40;99.90;;;;;;5090947;28;20027;-72
2021/10/25 00:14:26;;;;;;;22.85;10.70;;;8.40;99.90;;;;;;5091304;28;20395;-73
2021/10/25 00:16:52;;;;;;;14.88;9.57;;;8.40;99.90;;;;;;5082219;28;20021;-73
2021/10/25 00:19:18;;;;;;;14.95;9.77;;;8.30;99.90;;;;;;5081544;28;20391;-73
2021/10/25 00:21:43;;;;;;;13.80;9.75;;;8.30;99.90;;;;;;5065173;28;20523;-73
2021/10/25 00:24:09;;;;;;;17.40;9.30;;;8.30;99.90;;;;;;5084278;28;20154;-74
2021/10/25 00:26:35;;;;;;;14.63;9.43;;;8.20;99.90;;;;;;5091767;28;20081;-73
2021/10/25 00:29:01;;;;;;;16.90;8.95;;;8.30;99.90;;;;;;5091800;28;20106;-74
2021/10/25 00:31:26;;;;;;;13.35;9.73;;;8.30;99.90;;;;;;5072978;28;20024;-74
2021/10/25 00:33:52;;;;;;;16.48;9.65;;;8.30;99.90;;;;;;5091609;28;20031;-74
2021/10/25 00:36:18;;;;;;;14.65;9.23;;;8.30;99.90;;;;;;5092090;28;20042;-74
2021/10/25 00:38:44;;;;;;;13.55;9.02;;;8.40;99.90;;;;;;5085942;28;20021;-73
2021/10/25 00:41:10;;;;;;;16.15;9.93;;;8.40;99.90;;;;;;5053345;28;20496;-73
2021/10/25 00:43:37;;;;;;;14.40;9.27;;;8.40;99.90;;;;;;5070977;28;20055;-73
2021/10/25 00:46:03;;;;;;;14.40;8.85;;;8.40;99.90;;;;;;5071357;28;20025;-73
2021/10/25 00:48:29;;;;;;;13.20;9.15;;;8.40;99.90;;;;;;5054072;28;20040;-73
2021/10/25 00:50:55;;;;;;;15.77;8.93;;;8.40;99.90;;;;;;5071599;28;20406;-74
2021/10/25 00:53:21;;;;;;;12.75;8.25;;;8.50;99.90;;;;;;5076362;28;20075;-73
2021/10/25 00:55:47;;;;;;;15.35;8.75;;;8.50;99.90;;;;;;5069731;28;20035;-73
2021/10/25 00:58:13;;;;;;;11.00;7.45;;;8.50;99.90;;;;;;5053623;28;20021;-73
2021/10/25 01:00:39;;;;;;;16.38;8.45;;;8.50;99.90;;;;;;5074979;28;20069;-73
2021/10/25 01:03:05;;;;;;;11.55;7.40;;;8.40;99.90;;;;;;5091921;28;20036;-73
2021/10/25 01:05:32;;;;;;;14.43;7.88;;;8.40;99.90;;;;;;5090468;28;20102;-73
2021/10/25 01:08:01;;;;;;;14.07;7.97;;;8.30;99.90;;;;;;5073340;28;20384;-73
2021/10/25 01:10:27;;;;;;;12.57;8.60;;;8.30;99.90;;;;;;5072486;28;20020;-73
2021/10/25 01:12:57;;;;;;;11.55;7.13;;;8.30;99.90;;;;;;5091681;28;20032;-73
2021/10/25 01:15:23;;;;;;;11.32;7.90;;;8.30;99.90;;;;;;5091744;28;20383;-73
2021/10/25 01:17:53;;;;;;;15.45;7.80;;;8.30;99.90;;;;;;5091427;28;20054;-73
2021/10/25 01:20:19;;;;;;;14.45;8.88;;;8.40;99.90;;;;;;5091259;28;20016;-73
2021/10/25 01:22:45;;;;;;;10.48;7.28;;;8.40;99.90;;;;;;5090215;28;20031;-72
2021/10/25 01:25:10;;;;;;;16.23;8.20;;;8.40;99.90;;;;;;5090477;28;20028;-73
2021/10/25 01:27:36;;;;;;;12.82;8.50;;;8.30;99.90;;;;;;5090764;28;20024;-73
2021/10/25 01:30:03;;;;;;;12.35;7.38;;;8.30;99.90;;;;;;5090324;28;20036;-72
2021/10/25 01:32:29;;;;;;;12.68;7.68;;;8.40;99.90;;;;;;5074771;28;20555;-73
2021/10/25 01:34:55;;;;;;;10.88;7.78;;;8.40;99.90;;;;;;5085015;28;20032;-73
2021/10/25 01:37:21;;;;;;;11.57;7.22;;;8.40;99.90;;;;;;5095022;28;20099;-73
2021/10/25 01:39:47;;;;;;;13.30;7.38;;;8.40;99.90;;;;;;5094646;28;20048;-73
2021/10/25 01:42:12;;;;;;;11.65;6.70;;;8.40;99.90;;;;;;5094447;28;20094;-73
2021/10/25 01:44:39;;;;;;;12.43;7.50;;;8.50;99.90;;;;;;5077001;28;20024;-73
2021/10/25 01:47:05;;;;;;;11.50;7.53;;;8.50;99.90;;;;;;5094476;28;20527;-73
2021/10/25 01:49:30;;;;;;;10.73;7.25;;;8.50;99.90;;;;;;5094919;28;20028;-73
2021/10/25 01:51:56;;;;;;;13.70;7.63;;;8.60;99.90;;;;;;5076499;28;20024;-73
2021/10/25 01:54:22;;;;;;;14.18;7.25;;;8.60;99.90;;;;;;5094588;28;20038;-73
2021/10/25 01:56:47;;;;;;;10.23;6.53;;;8.70;99.90;;;;;;5091215;28;20091;-73
2021/10/25 01:59:14;;;;;;;11.20;6.72;;;8.70;99.90;;;;;;5093762;28;20024;-73
2021/10/25 02:01:39;;;;;;;12.60;7.28;;;8.70;99.90;;;;;;5076392;28;20020;-72
2021/10/25 02:04:06;;;;;;;12.88;7.20;;;8.70;99.90;;;;;;5076230;28;20509;-73
2021/10/25 02:06:33;;;;;;;11.48;7.57;;;8.70;99.90;;;;;;5094648;28;20051;-72
2021/10/25 02:08:59;;;;;;;14.00;8.07;;;8.70;99.90;;;;;;5094011;28;20498;-73
2021/10/25 02:11:25;;;;;;;10.32;6.82;;;8.70;99.90;;;;;;5094211;28;20025;-72
2021/10/25 02:13:51;;;;;;;13.23;7.07;;;8.80;99.90;;;;;;5094373;28;20499;-73
2021/10/25 02:16:17;;;;;;;13.52;7.15;;;8.80;99.90;;;;;;5094463;28;20051;-73
2021/10/25 02:18:43;;;;;;;16.05;6.68;;;8.80;99.90;;;;;;5093625;28;20789;-73
2021/10/25 02:21:10;;;;;;;11.02;7.00;;;8.80;99.90;;;;;;5088823;28;20533;-73
2021/10/25 02:23:36;;;;;;;9.30;6.63;;;8.90;99.90;;;;;;5073032;28;20028;-72
2021/10/25 02:26:03;;;;;;;13.65;7.28;;;8.90;99.90;;;;;;5093041;28;20099;-73
2021/10/25 02:28:30;;;;;;;12.73;7.53;;;8.90;99.90;;;;;;5094000;28;20028;-73
2021/10/25 02:30:56;;;;;;;11.63;7.22;;;9.00;99.90;;;;;;5089142;28;20027;-74
2021/10/25 02:33:22;;;;;;;9.35;6.97;;;9.00;99.90;;;;;;5090652;28;20028;-73
2021/10/25 02:35:48;;;;;;;10.77;7.20;;;9.00;99.90;;;;;;5094140;28;20464;-73
2021/10/25 02:38:14;;;;;;;10.80;7.25;;;9.00;99.90;;;;;;5093600;28;20624;-72
2021/10/25 02:40:40;;;;;;;11.52;7.00;;;9.00;99.90;;;;;;5093850;28;20028;-73
2021/10/25 02:43:07;;;;;;;13.02;6.65;;;9.00;99.90;;;;;;5093096;28;20052;-72
2021/10/25 02:45:33;;;;;;;11.10;6.65;;;9.10;99.90;;;;;;5093288;28;20020;-73
2021/10/25 02:47:59;;;;;;;9.93;6.53;;;9.10;99.90;;;;;;5092644;28;20032;-73
2021/10/25 02:50:25;;;;;;;11.00;6.80;;;9.10;99.90;;;;;;5093246;28;20063;-73
2021/10/25 02:52:51;;;;;;;8.02;6.32;;;9.10;99.90;;;;;;5075653;28;20476;-72
2021/10/25 02:55:17;;;;;;;11.13;6.28;;;9.00;99.90;;;;;;5093236;28;20020;-72
2021/10/25 02:57:43;;;;;;;7.60;5.78;;;9.00;99.90;;;;;;5093575;28;20035;-73
2021/10/25 03:00:11;;;;;;;8.27;6.05;;;9.10;99.90;;;;;;5093283;28;20411;-73
2021/10/25 03:02:37;;;;;;;11.82;6.72;;;9.10;99.90;;;;;;5075284;28;20078;-73
2021/10/25 03:05:04;;;;;;;8.23;5.72;;;9.10;99.90;;;;;;5093100;28;20020;-72
2021/10/25 03:07:30;;;;;;;9.65;5.97;;;9.10;99.90;;;;;;5093347;28;20046;-74
2021/10/25 03:09:55;;;;;;;10.00;6.30;;;9.00;99.90;;;;;;5092725;28;20543;-72
2021/10/25 03:12:21;;;;;;;8.75;5.97;;;9.10;99.90;;;;;;5092521;28;20028;-74
2021/10/25 03:14:47;;;;;;;12.60;6.30;;;9.10;99.90;;;;;;5092100;28;20036;-73
2021/10/25 03:17:12;;;;;;;13.45;6.70;;;9.10;99.90;;;;;;5092544;28;20052;-72
2021/10/25 03:19:40;;;;;;;8.80;5.88;;;9.10;99.90;;;;;;5092471;28;20410;-72
2021/10/25 03:22:05;;;;;;;9.43;6.45;;;9.10;99.90;;;;;;5091582;28;20598;-73
2021/10/25 03:24:32;;;;;;;11.00;7.50;;;9.10;99.90;;;;;;5092998;28;20095;-72
2021/10/25 03:26:57;;;;;;;10.18;7.00;;;9.10;99.90;;;;;;5092049;28;20036;-72
2021/10/25 03:29:23;;;;;;;7.55;5.88;;;9.10;99.90;;;;;;5092449;28;20491;-72
2021/10/25 03:31:51;;;;;;;10.55;6.45;;;9.10;99.90;;;;;;5092284;28;20032;-73
2021/10/25 03:34:17;;;;;;;15.85;6.68;;;9.10;99.90;;;;;;5092284;28;20111;-72
2021/10/25 03:36:44;;;;;;;11.82;6.28;;;9.10;99.90;;;;;;5092887;28;20099;-72
2021/10/25 03:39:10;;;;;;;9.57;6.13;;;9.10;99.90;;;;;;5074577;28;20027;-72
2021/10/25 03:41:40;;;;;;;10.18;6.90;;;9.20;99.90;;;;;;5092532;28;20036;-73
2021/10/25 03:44:12;;;;;;;11.32;5.97;;;9.20;99.90;;;;;;5092627;28;20047;-73
2021/10/25 03:46:43;;;;;;;12.80;6.70;;;9.20;99.90;;;;;;5092663;28;20100;-72
2021/10/25 03:49:21;;;;;;;15.48;6.90;;;9.10;99.90;;;;;;5074092;28;20067;-72
2021/10/25 03:51:47;;;;;;;8.07;5.93;;;9.10;99.90;;;;;;5091807;28;20042;-72
2021/10/25 04:28:23;;;;;;;7.28;4.60;;;9.10;99.90;;;;;;5070452;28;20465;-72
2021/10/25 04:30:55;;;;;;;9.82;6.00;;;9.10;99.90;;;;;;5071650;28;20015;-72
2021/10/25 04:33:21;;;;;;;11.75;5.68;;;9.10;99.90;;;;;;5074392;28;20090;-72
2021/10/25 04:35:47;;;;;;;9.35;5.90;;;9.10;99.90;;;;;;5071954;28;20012;-72
2021/10/25 04:38:13;;;;;;;7.45;5.82;;;9.10;99.90;;;;;;5053855;28;20021;-73
2021/10/25 04:40:39;;;;;;;12.00;6.15;;;9.10;99.90;;;;;;5074783;28;20045;-73
2021/10/25 04:43:04;;;;;;;11.80;5.50;;;9.10;99.90;;;;;;5091870;28;20572;-73
2021/10/25 04:45:30;;;;;;;13.65;6.53;;;9.10;99.90;;;;;;5092239;28;20487;-73
2021/10/25 04:47:56;;;;;;;14.57;6.35;;;9.10;99.90;;;;;;5091721;28;20464;-72
2021/10/25 04:50:22;;;;;;;11.13;6.43;;;9.10;99.90;;;;;;5092008;28;20043;-73
2021/10/25 04:52:48;;;;;;;9.00;6.32;;;9.10;99.90;;;;;;5087832;28;20020;-73
2021/10/25 04:55:14;;;;;;;14.07;7.07;;;9.10;99.90;;;;;;5091122;28;20031;-72
2021/10/25 04:57:40;;;;;;;7.60;6.25;;;9.10;99.90;;;;;;5091024;28;20103;-73
2021/10/25 05:00:06;;;;;;;9.95;6.63;;;9.20;99.90;;;;;;5091721;28;20103;-73
2021/10/25 05:02:32;;;;;;;9.82;6.57;;;9.10;99.90;;;;;;5091152;28;20043;-73
2021/10/25 05:04:58;;;;;;;12.10;6.32;;;9.10;99.90;;;;;;5091563;28;20023;-72
2021/10/25 05:07:24;;;;;;;9.75;6.00;;;9.10;99.90;;;;;;5074953;28;20024;-72
2021/10/25 05:09:49;;;;;;;7.13;5.47;;;9.20;99.90;;;;;;5077326;28;20035;-73
2021/10/25 05:12:15;;;;;;;10.07;6.82;;;9.20;99.90;;;;;;5095599;28;20039;-72
2021/10/25 05:14:42;;;;;;;13.57;6.53;;;9.20;99.90;;;;;;5077701;28;20020;-72
2021/10/25 05:17:07;;;;;;;10.27;6.80;;;9.30;99.90;;;;;;5085700;28;20415;-73
2021/10/25 05:19:33;;;;;;;10.65;6.78;;;9.30;99.90;;;;;;5089642;28;20085;-72
2021/10/25 05:21:59;;;;;;;9.48;6.50;;;9.20;99.90;;;;;;5095050;28;20050;-72
2021/10/25 05:24:24;;;;;;;8.23;6.07;;;9.30;99.90;;;;;;5095444;28;20028;-72
2021/10/25 05:26:50;;;;;;;10.68;6.97;;;9.30;99.90;;;;;;5094661;28;20552;-72
2021/10/25 05:29:16;;;;;;;9.63;6.50;;;9.30;99.90;;;;;;5095233;28;20085;-73
2021/10/25 05:31:41;;;;;;;9.35;5.53;;;9.30;99.90;;;;;;5093905;28;20024;-73
2021/10/25 05:34:09;;;;;;;11.95;6.13;;;9.30;99.90;;;;;;5090398;28;20064;-73
2021/10/25 05:36:35;;;;;;;14.50;6.18;;;9.40;99.90;;;;;;5074578;28;20020;-73
2021/10/25 05:39:02;;;;;;;10.60;6.05;;;9.40;99.90;;;;;;5057155;28;20027;-73
2021/10/25 05:41:29;;;;;;;12.23;6.18;;;9.40;99.90;;;;;;5087507;28;20028;-73
2021/10/25 05:43:55;;;;;;;10.18;6.85;;;9.40;99.90;;;;;;5077569;28;20480;-73
2021/10/25 05:46:21;;;;;;;11.70;8.57;;;9.40;99.90;;;;;;5095516;28;20012;-73
2021/10/25 05:48:46;;;;;;;10.98;7.95;;;9.40;99.90;;;;;;5076659;28;20078;-73
2021/10/25 05:51:13;;;;;;;10.23;5.90;;;9.50;99.90;;;;;;5095636;28;20031;-72
2021/10/25 05:53:39;;;;;;;9.35;5.68;;;9.50;99.90;;;;;;5077429;28;20020;-72
2021/10/25 05:56:05;;;;;;;9.40;6.20;;;9.50;99.90;;;;;;5095947;28;20031;-73
2021/10/25 05:58:31;;;;;;;12.75;6.05;;;9.50;99.90;;;;;;5095734;28;20024;-72
2021/10/25 06:01:00;;;;;;;11.00;5.85;;;9.50;99.90;;;;;;5091862;28;20028;-72
2021/10/25 06:03:29;;;;;;;8.77;5.90;;;9.60;99.90;;;;;;5077749;28;20036;-72
2021/10/25 06:05:54;;;;;;;9.35;5.75;;;9.60;99.90;;;;;;5083842;28;20114;-72
2021/10/25 06:08:20;;;;;;;8.90;5.63;;;9.60;99.90;;;;;;5074060;28;20111;-73
2021/10/25 06:10:47;;;;;;;8.27;6.30;;;9.60;99.90;;;;;;5081109;28;20109;-72
2021/10/25 06:13:20;;;;;;;7.63;5.38;;;9.60;99.90;;;;;;5077162;28;20028;-73
2021/10/25 06:15:55;;;;;;;12.75;6.20;;;9.70;99.90;;;;;;5093728;28;20496;-72
2021/10/25 06:18:21;;;;;;;11.15;5.50;;;9.70;99.90;;;;;;5076160;28;20054;-73
2021/10/25 06:20:47;;;;;;;11.43;6.10;;;9.70;99.90;;;;;;5085349;28;20456;-73
2021/10/25 06:23:14;;;;;;;10.73;6.05;;;9.60;99.90;;;;;;5067274;28;20059;-73
2021/10/25 06:25:41;;;;;;;20.50;14.63;;;9.70;99.90;;;;;;5094761;28;20016;-73
2021/10/25 06:28:07;;;;;;;10.50;6.10;;;9.70;99.90;;;;;;5088044;28;20157;-73
2021/10/25 06:30:35;;;;;;;14.27;6.80;;;9.80;99.90;;;;;;5091348;28;20028;-73
2021/10/25 06:33:03;;;;;;;15.50;9.98;;;9.80;99.90;;;;;;5081320;28;20025;-73
2021/10/25 06:35:30;;;;;;;9.00;7.05;;;9.90;99.90;;;;;;5056635;28;20090;-73
2021/10/25 06:40:23;;;;;;;8.07;5.90;;;9.90;99.90;;;;;;5088112;28;20032;-74
2021/10/25 06:42:51;;;;;;;13.77;11.30;;;9.90;99.90;;;;;;5075296;28;20028;-76
2021/10/25 06:45:20;;;;;;;8.55;7.32;;;9.90;99.90;;;;;;5094687;28;20028;-75
2021/10/25 06:47:46;;;;;;;7.10;5.32;;;10.00;99.90;;;;;;5088687;28;20031;-73
2021/10/25 06:50:14;;;;;;;11.40;8.65;;;10.00;99.90;;;;;;5073975;28;20050;-73
2021/10/25 06:52:39;;;;;;;11.35;6.18;;;10.00;99.90;;;;;;5094309;28;20024;-74
2021/10/25 06:55:06;;;;;;;12.32;5.72;;;10.10;99.90;;;;;;5094141;28;20109;-75
2021/10/25 06:57:33;;;;;;;9.25;5.43;;;10.10;99.90;;;;;;5093935;28;20099;-74
2021/10/25 07:00:00;;;;;;;12.50;6.30;;;10.10;99.90;;;;;;5076405;28;20506;-74
2021/10/25 07:02:26;;;;;;;9.90;5.63;;;10.10;99.90;;;;;;5092073;28;20028;-72
2021/10/25 07:04:52;;;;;;;12.18;6.72;;;10.10;99.90;;;;;;5076894;28;20435;-72
2021/10/25 07:07:20;;;;;;;8.75;5.20;;;10.20;99.90;;;;;;5093690;28;20103;-74
2021/10/25 07:09:46;;;;;;;15.07;9.00;;;10.30;99.90;;;;;;5093020;28;20024;-74
2021/10/25 07:12:12;;;;;;;9.93;7.05;;;10.30;99.90;;;;;;5093206;28;20039;-74
2021/10/25 07:14:40;;;;;;;9.18;5.53;;;10.30;99.90;;;;;;5093630;28;20105;-74
2021/10/25 08:05:58;;;;;;;12.35;6.03;;;11.10;99.90;;;;;;5078554;28;20039;-74
2021/10/25 08:11:08;;;;;;;8.45;5.13;;;11.20;99.90;;;;;;5075201;28;20033;-73
2021/10/25 08:13:38;;;;;;;9.10;5.82;;;11.20;99.90;;;;;;5076449;28;20099;-74
2021/10/25 08:16:20;;;;;;;11.73;4.93;;;11.30;99.90;;;;;;5086115;28;20054;-74
2021/10/25 08:21:17;;;;;;;7.90;4.78;;;11.50;99.90;;;;;;5076319;28;20020;-74
2021/10/25 08:23:43;;;;;;;6.70;4.82;;;11.40;99.90;;;;;;5082099;28;20463;-74
2021/10/25 08:26:09;;;;;;;9.90;5.47;;;11.50;99.90;;;;;;5083273;28;20028;-74
2021/10/25 08:28:35;;;;;;;11.43;4.95;;;11.50;99.90;;;;;;5082430;28;20025;-72
2021/10/25 08:31:02;;;;;;;5.80;4.22;;;11.50;99.90;;;;;;5083204;28;20426;-71
2021/10/25 08:41:19;;;;;;;7.45;4.10;;;11.70;99.90;;;;;;5084798;28;20071;-77
2021/10/25 08:43:46;;;;;;;7.78;4.97;;;11.60;99.90;;;;;;5061769;28;20036;-75
2021/10/25 08:46:15;;;;;;;11.13;4.00;;;11.60;99.90;;;;;;5082885;28;20013;-75
2021/10/25 08:48:45;;;;;;;7.18;5.00;;;11.70;99.90;;;;;;5088791;28;20052;-75
2021/10/25 08:51:12;;;;;;;7.63;4.20;;;11.70;99.90;;;;;;5084867;28;20066;-73
2021/10/25 08:53:39;;;;;;;7.97;4.53;;;11.70;99.90;;;;;;5079690;28;20474;-74
2021/10/25 08:56:05;;;;;;;8.40;4.63;;;11.70;99.90;;;;;;5077921;28;20047;-74
2021/10/25 08:58:35;;;;;;;6.53;4.82;;;11.70;99.90;;;;;;5092086;28;20020;-74
2021/10/25 09:01:01;;;;;;;7.60;4.75;;;11.80;99.90;;;;;;5073315;28;20020;-74
2021/10/25 09:03:27;;;;;;;6.40;4.47;;;11.80;99.90;;;;;;5081401;28;20552;-74
2021/10/25 09:05:57;;;;;;;8.05;4.50;;;11.80;99.90;;;;;;5087041;28;20102;-74
2021/10/25 09:08:24;;;;;;;6.47;4.80;;;11.80;99.90;;;;;;5077365;28;20059;-76
2021/10/25 09:10:50;;;;;;;9.73;4.72;;;11.80;99.90;;;;;;5086552;28;20039;-75
2021/10/25 09:13:19;;;;;;;8.98;4.07;;;11.80;99.90;;;;;;5090409;28;20027;-75
2021/10/25 09:15:57;;;;;;;10.88;5.22;;;11.90;99.90;;;;;;5092210;28;20012;-76
2021/10/25 09:18:29;;;;;;;13.20;5.10;;;11.80;99.90;;;;;;5089542;28;20028;-74
2021/10/25 09:20:58;;;;;;;9.40;4.70;;;11.90;99.90;;;;;;5085274;28;20348;-75
2021/10/25 09:23:53;;;;;;;9.48;4.10;;;11.90;99.90;;;;;;5086240;28;20491;-77
2021/10/25 09:26:23;;;;;;;10.00;4.90;;;12.00;99.90;;;;;;5075060;28;20120;-75
2021/10/25 09:28:55;;;;;;;4.75;3.88;;;12.10;99.90;;;;;;5089346;28;20090;-75
2021/10/25 09:31:29;;;;;;;5.15;4.05;;;12.10;99.90;;;;;;5089091;28;20049;-74
2021/10/25 09:34:04;;;;;;;5.03;3.90;;;12.20;99.90;;;;;;5071412;28;20024;-75
2021/10/25 09:36:43;;;;;;;5.97;3.88;;;12.20;99.90;;;;;;5089142;28;20032;-75
2021/10/25 09:39:26;;;;;;;8.50;4.20;;;12.20;99.90;;;;;;5071575;28;20023;-75
2021/10/25 09:50:05;;;;;;;11.52;4.60;;;12.20;99.90;;;;;;5079132;28;20127;-76
2021/10/25 09:52:36;;;;;;;4.90;3.72;;;12.30;99.90;;;;;;5079514;28;20480;-76
2021/10/25 09:55:09;;;;;;;7.88;4.43;;;12.20;99.90;;;;;;5086377;28;20479;-78
2021/10/25 09:57:50;;;;;;;8.65;4.50;;;12.30;99.90;;;;;;5073271;28;20057;-77
2021/10/25 10:00:17;;;;;;;9.35;4.45;;;12.30;99.90;;;;;;5085273;28;20028;-76
2021/10/25 10:02:43;;;;;;;9.20;4.45;;;12.30;99.90;;;;;;5082516;28;20462;-77
2021/10/25 10:05:14;;;;;;;7.03;3.78;;;12.30;99.90;;;;;;5089323;28;20040;-77
2021/10/25 10:07:40;;;;;;;8.45;4.65;;;12.30;99.90;;;;;;5084063;28;20027;-77
2021/10/25 10:10:09;;;;;;;8.23;4.35;;;12.40;99.90;;;;;;5065242;28;20064;-76
2021/10/25 10:12:35;;;;;;;7.30;4.28;;;12.40;99.90;;;;;;5071319;28;20461;-76
2021/10/25 10:15:03;;;;;;;11.52;4.88;;;12.40;99.90;;;;;;5077912;28;20060;-76
2021/10/25 10:17:42;;;;;;;6.40;4.53;;;12.40;99.90;;;;;;5087846;28;20361;-77
2021/10/25 10:20:12;;;;;;;9.93;5.03;;;12.40;99.90;;;;;;5084213;28;20028;-76
2021/10/25 10:22:48;;;;;;;9.07;4.00;;;12.40;99.90;;;;;;5083759;28;20385;-77
2021/10/25 10:25:30;;;;;;;7.32;4.05;;;12.40;99.90;;;;;;5090123;28;20434;-77
2021/10/25 10:28:01;;;;;;;13.73;5.20;;;12.40;99.90;;;;;;5089776;28;20031;-77
2021/10/25 10:30:28;;;;;;;4.40;3.80;;;12.50;99.90;;;;;;5063698;28;20081;-77
2021/10/25 10:33:03;;;;;;;6.97;4.07;;;12.50;99.90;;;;;;5081766;28;20704;-77
2021/10/25 10:35:44;;;;;;;7.60;4.80;;;12.50;99.90;;;;;;5084549;28;20108;-77
2021/10/25 10:38:09;;;;;;;10.45;3.95;;;12.60;99.90;;;;;;5089570;28;20114;-76
2021/10/25 10:40:43;;;;;;;4.80;3.55;;;12.70;99.90;;;;;;5087357;28;20353;-76
2021/10/25 10:43:22;;;;;;;7.50;3.60;;;12.60;99.90;;;;;;5064719;28;20089;-75
2021/10/25 10:46:18;;;;;;;9.75;4.35;;;12.70;99.90;;;;;;5087018;28;20051;-74
2021/10/25 10:48:53;;;;;;;6.47;3.60;;;12.70;99.90;;;;;;5052432;28;20476;-77
2021/10/25 10:51:27;;;;;;;7.25;3.35;;;12.90;99.90;;;;;;5085978;28;20050;-77
2021/10/25 10:54:01;;;;;;;10.43;4.65;;;13.00;99.90;;;;;;5082588;28;20072;-77
2021/10/25 10:56:30;;;;;;;4.28;3.88;;;13.00;99.90;;;;;;5086431;28;20479;-76
2021/10/25 11:01:31;;;;;;;6.13;3.60;;;13.10;99.90;;;;;;5087099;28;20472;-77
2021/10/25 11:03:59;;;;;;;4.70;3.55;;;13.10;99.90;;;;;;5075623;28;20424;-77
2021/10/25 11:06:35;;;;;;;9.52;3.50;;;13.20;99.90;;;;;;5084217;28;20013;-76
2021/10/25 11:09:09;;;;;;;8.50;3.97;;;13.20;99.90;;;;;;5067967;28;20078;-75
2021/10/25 11:11:39;;;;;;;14.15;10.80;;;13.20;99.90;;;;;;5077513;28;20380;-76
2021/10/25 11:14:07;;;;;;;6.70;4.20;;;13.20;99.90;;;;;;5069599;28;20029;-76
2021/10/25 11:19:19;;;;;;;5.50;4.05;;;13.20;99.90;;;;;;5078220;28;20031;-75
2021/10/25 11:21:51;;;;;;;7.95;3.90;;;13.30;99.90;;;;;;5088019;28;20028;-76
2021/10/25 11:24:18;;;;;;;10.77;4.15;;;13.40;99.90;;;;;;5085705;28;20047;-76
2021/10/25 11:26:55;;;;;;;5.57;3.20;;;13.40;99.90;;;;;;5088841;28;20111;-76
2021/10/25 11:29:29;;;;;;;6.72;3.80;;;13.50;99.90;;;;;;5066784;28;20423;-79
2021/10/25 11:31:59;;;;;;;4.88;3.33;;;13.60;99.90;;;;;;5080671;28;20020;-76
2021/10/25 11:34:30;;;;;;;4.95;3.50;;;13.60;99.90;;;;;;5083183;28;20031;-76
2021/10/25 11:37:05;;;;;;;6.40;3.60;;;13.70;99.90;;;;;;5075243;28;20039;-77
2021/10/25 11:39:35;;;;;;;5.25;3.45;;;13.70;99.90;;;;;;5073425;28;20373;-78
2021/10/25 11:42:01;;;;;;;6.50;3.95;;;13.90;99.90;;;;;;5084828;28;20058;-77
2021/10/25 11:44:30;;;;;;;6.90;3.00;;;14.00;99.90;;;;;;5077134;28;20066;-79
2021/10/25 11:46:56;;;;;;;8.23;3.65;;;13.90;99.90;;;;;;5078960;28;20111;-76
2021/10/25 11:49:23;;;;;;;7.10;3.88;;;14.00;99.90;;;;;;5079120;28;20111;-74
2021/10/25 11:51:50;;;;;;;8.38;3.65;;;14.00;99.90;;;;;;5080709;28;20539;-75
2021/10/25 11:54:17;;;;;;;6.88;3.88;;;14.20;99.90;;;;;;5088014;28;20070;-75
2021/10/25 11:56:53;;;;;;;6.05;3.38;;;14.10;99.90;;;;;;5081170;28;20036;-77
2021/10/25 11:59:20;;;;;;;8.00;3.38;;;14.20;99.90;;;;;;5083702;28;20048;-76
2021/10/25 12:01:47;;;;;;;8.55;3.00;;;14.20;99.90;;;;;;5084773;28;20070;-76
2021/10/25 12:04:14;;;;;;;7.85;3.40;;;14.20;99.90;;;;;;5081035;28;20062;-76
2021/10/25 12:06:40;;;;;;;6.90;3.03;;;14.40;99.90;;;;;;5081790;28;20058;-76
2021/10/25 12:09:08;;;;;;;7.50;3.90;;;14.40;99.90;;;;;;5081280;28;20035;-76
2021/10/25 12:11:54;;;;;;;8.98;3.97;;;14.40;99.90;;;;;;5083282;28;20035;-76
2021/10/25 12:14:27;;;;;;;4.43;3.75;;;14.50;99.90;;;;;;5080438;28;20024;-76
2021/10/25 12:16:53;;;;;;;6.68;3.15;;;14.50;99.90;;;;;;5066863;28;20051;-76
2021/10/25 12:19:19;;;;;;;6.03;3.28;;;14.60;99.90;;;;;;5084776;28;20045;-76
2021/10/25 12:21:46;;;;;;;7.32;3.03;;;14.60;99.90;;;;;;5064435;28;20024;-74
2021/10/25 12:24:12;;;;;;;18.10;15.38;;;14.60;99.90;;;;;;5085438;28;20035;-76
2021/10/25 12:26:40;;;;;;;8.40;4.57;;;14.70;99.90;;;;;;5084466;28;20023;-75
2021/10/25 12:29:19;;;;;;;9.57;3.88;;;14.70;99.90;;;;;;5086708;28;20220;-76
2021/10/25 12:31:46;;;;;;;4.55;2.92;;;14.80;99.90;;;;;;5079186;28;20107;-75
2021/10/25 12:34:13;;;;;;;7.47;3.53;;;14.90;99.90;;;;;;5077557;28;20025;-75
2021/10/25 12:36:43;;;;;;;6.28;3.30;;;14.90;99.90;;;;;;5078986;28;20019;-76
2021/10/25 12:39:17;;;;;;;6.22;3.47;;;14.90;99.90;;;;;;5087346;28;20028;-75
2021/10/25 12:41:44;;;;;;;7.38;4.07;;;14.90;99.90;;;;;;5086341;28;20028;-75
2021/10/25 12:44:09;;;;;;;5.85;3.55;;;14.90;99.90;;;;;;5082354;28;20032;-75
2021/10/25 12:46:35;;;;;;;9.77;4.00;;;14.80;99.90;;;;;;5080149;28;20129;-75
2021/10/25 12:49:02;;;;;;;5.60;3.47;;;14.90;99.90;;;;;;5087027;28;20047;-76
2021/10/25 12:51:40;;;;;;;4.85;2.95;;;14.80;99.90;;;;;;5079939;28;20033;-75
2021/10/25 12:54:12;;;;;;;4.60;3.25;;;14.80;99.90;;;;;;5085248;28;20020;-75
2021/10/25 12:56:39;;;;;;;6.40;3.10;;;14.80;99.90;;;;;;5083955;28;20024;-76
2021/10/25 12:59:10;;;;;;;4.82;3.65;;;14.80;99.90;;;;;;5082494;28;20016;-75
2021/10/25 13:01:36;;;;;;;5.03;3.40;;;14.70;99.90;;;;;;5086862;28;20058;-76
2021/10/25 13:04:03;;;;;;;7.28;3.92;;;14.70;99.90;;;;;;5080986;28;20497;-75
2021/10/25 13:06:31;;;;;;;5.53;3.20;;;14.70;99.90;;;;;;5087553;28;20149;-75
2021/10/25 13:09:08;;;;;;;4.55;3.95;;;14.70;99.90;;;;;;5082255;28;20495;-75
2021/10/25 13:11:33;;;;;;;9.35;3.60;;;14.80;99.90;;;;;;5077730;28;20399;-75
2021/10/25 13:13:59;;;;;;;5.55;3.80;;;14.80;99.90;;;;;;5072577;28;20039;-75
2021/10/25 13:16:42;;;;;;;5.82;4.45;;;14.70;99.90;;;;;;5064566;28;20127;-75
2021/10/25 13:19:09;;;;;;;8.43;4.10;;;14.70;99.90;;;;;;5075401;28;20032;-75
2021/10/25 13:21:35;;;;;;;4.47;3.45;;;14.80;99.90;;;;;;5064158;28;20025;-75
2021/10/25 13:24:00;;;;;;;6.82;3.83;;;14.80;99.90;;;;;;5080362;28;20055;-75
2021/10/25 13:26:27;;;;;;;7.13;3.53;;;14.70;99.90;;;;;;5065696;28;20030;-75
2021/10/25 13:28:53;;;;;;;7.95;3.20;;;14.70;99.90;;;;;;5080007;28;20037;-75
2021/10/25 13:31:18;;;;;;;5.63;3.47;;;14.80;99.90;;;;;;5081672;28;20020;-75
2021/10/25 13:33:44;;;;;;;6.88;3.92;;;14.80;99.90;;;;;;5085406;28;20017;-75
2021/10/25 13:36:11;;;;;;;4.72;3.60;;;14.80;99.90;;;;;;5064630;28;20024;-75
2021/10/25 13:38:36;;;;;;;8.20;3.38;;;14.80;99.90;;;;;;5083171;28;20020;-75
2021/10/25 13:41:02;;;;;;;5.72;3.67;;;14.70;99.90;;;;;;5083447;28;20035;-76
2021/10/25 13:43:28;;;;;;;4.85;3.13;;;14.70;99.90;;;;;;5083636;28;20036;-75
2021/10/25 13:45:54;;;;;;;6.05;3.65;;;14.80;99.90;;;;;;5087053;28;20020;-75
2021/10/25 13:48:19;;;;;;;7.38;3.67;;;14.80;99.90;;;;;;5089374;28;20624;-75
2021/10/25 13:50:45;;;;;;;6.05;4.00;;;14.90;99.90;;;;;;5083332;28;20467;-76
2021/10/25 13:53:11;;;;;;;7.97;3.92;;;14.90;99.90;;;;;;5087490;28;20103;-75
2021/10/25 13:55:37;;;;;;;8.18;3.60;;;14.90;99.90;;;;;;5082529;28;20032;-75
2021/10/25 13:58:03;;;;;;;6.90;3.67;;;15.00;99.90;;;;;;5084525;28;20023;-75
2021/10/25 14:00:29;;;;;;;7.57;4.10;;;15.00;99.90;;;;;;5067441;28;20028;-74
2021/10/25 14:02:57;;;;;;;6.28;3.97;;;15.10;99.90;;;;;;5087289;28;20069;-74
2021/10/25 14:05:23;;;;;;;6.55;4.05;;;15.10;99.90;;;;;;5082606;28;20016;-75
2021/10/25 14:07:49;;;;;;;6.28;3.70;;;15.00;99.90;;;;;;5083746;28;20016;-76
2021/10/25 14:10:27;;;;;;;6.65;4.00;;;15.00;99.90;;;;;;5085066;28;20065;-76
2021/10/25 14:12:57;;;;;;;6.68;3.70;;;14.90;99.90;;;;;;5071029;28;20028;-76
2021/10/25 14:15:28;;;;;;;8.63;4.45;;;14.90;99.90;;;;;;5068756;28;20369;-76
2021/10/25 14:17:57;;;;;;;8.35;3.83;;;15.00;99.90;;;;;;5086516;28;20027;-76
2021/10/25 14:20:26;;;;;;;10.23;4.50;;;15.00;99.90;;;;;;5087862;28;20024;-76
2021/10/25 14:22:55;;;;;;;6.22;4.10;;;15.10;99.90;;;;;;5085383;28;20047;-75
2021/10/25 14:25:21;;;;;;;5.57;3.65;;;15.10;99.90;;;;;;5089068;28;20012;-76
2021/10/25 14:27:47;;;;;;;10.60;4.47;;;15.10;99.90;;;;;;5093214;28;20032;-76
2021/10/25 14:30:13;;;;;;;8.70;3.85;;;15.10;99.90;;;;;;5086826;28;20028;-75
2021/10/25 14:32:40;;;;;;;6.35;3.75;;;15.10;99.90;;;;;;5078211;28;20383;-76
2021/10/25 14:35:06;;;;;;;7.22;4.15;;;15.10;99.90;;;;;;5081105;28;20028;-76
2021/10/25 14:37:33;;;;;;;7.05;3.85;;;15.10;99.90;;;;;;5089196;28;20035;-76
2021/10/25 14:40:11;;;;;;;4.15;3.47;;;15.10;99.90;;;;;;5088797;28;20058;-76
2021/10/25 14:42:41;;;;;;;6.18;3.50;;;15.10;99.90;;;;;;5066739;28;20385;-77
2021/10/25 14:45:23;;;;;;;6.78;4.45;;;15.00;99.90;;;;;;5079950;28;20040;-76